This is the latest recevied weather packets stored in our database for station/object N3SW-13. If no packets are shown the sender has not sent any weather packets the latest 10 day(s).
| Time | Temp. | Humidity | Pressure | Rain* | Wind** | Luminosity | Snow |
|---|---|---|---|---|---|---|---|
| 1777856445 | 13.33° C | 40% | 1015.6 hPa | 0 mm | - | - | - |
| 1777854645 | 13.89° C | 35% | 1015.3 hPa | 0 mm | - | - | - |
| 1777846544 | 17.78° C | 28% | 1015.3 hPa | 0 mm | - | - | - |
| 1777844739 | 18.33° C | 27% | 1015.5 hPa | 0 mm | - | - | - |
| 1777842034 | 17.22° C | 29% | 1016 hPa | 0 mm | - | - | - |
| 1777835719 | 16.11° C | 31% | 1017.2 hPa | 0 mm | - | - | - |
| 1777834838 | 15.56° C | 33% | 1017.3 hPa | 0 mm | - | - | - |
| 1777833016 | 15.56° C | 35% | 1018 hPa | 0 mm | - | - | - |
| 1777831212 | 13.89° C | 35% | 1018.3 hPa | 0 mm | - | - | - |
| 1777830307 | 14.44° C | 38% | 1018.5 hPa | 0 mm | - | - | - |
| 1777826760 | 12.22° C | 41% | 1019.4 hPa | 0 mm | - | - | - |
| 1777825858 | 11.67° C | 42% | 1019.4 hPa | 0 mm | - | - | - |
| 1777823158 | 10° C | 46% | 1020 hPa | 0 mm | - | - | - |
| 1777819534 | 8.33° C | 49% | 1020.3 hPa | 0 mm | - | - | - |
| 1777818631 | 7.78° C | 50% | 1020.2 hPa | 0 mm | - | - | - |
| 1777816827 | 7.22° C | 53% | 1020.1 hPa | 0 mm | - | - | - |
| 1777814123 | 6.11° C | 55% | 1020 hPa | 0 mm | - | - | - |
| 1777807813 | 4.44° C | 66% | 1019 hPa | 0 mm | - | - | - |
| 1777794347 | 5° C | 67% | 1016.2 hPa | 0 mm | - | - | - |
| 1777793442 | 5° C | 67% | 1015.8 hPa | 0 mm | - | - | - |
| 1777792547 | 5° C | 67% | 1015.9 hPa | 0 mm | - | - | - |
| 1777791638 | 5° C | 66% | 1015.8 hPa | 0 mm | - | - | - |
| 1777789834 | 5.56° C | 64% | 1015.6 hPa | 0 mm | - | - | - |
| 1777778110 | 7.78° C | 57% | 1014.8 hPa | 0 mm | - | - | - |
| 1777775406 | 8.33° C | 53% | 1014.8 hPa | 0 mm | - | - | - |
* Rain latest hour (hover to see other rain measurements)
** Current wind speed in m/s (hover to see current wind gust speed)